createdAt,value
2019-01-28T00:01:44.049Z,6.47
2019-01-28T00:06:48.389Z,6.40
2019-01-28T00:11:52.730Z,6.87
2019-01-28T00:16:57.089Z,7.40
2019-01-28T00:22:01.516Z,8.30
2019-01-28T00:27:05.879Z,6.90
2019-01-28T00:32:10.240Z,8.23
2019-01-28T00:37:14.595Z,7.07
2019-01-28T00:42:19.064Z,7.10
2019-01-28T00:47:23.464Z,7.57
2019-01-28T00:52:27.855Z,8.27
2019-01-28T00:57:32.172Z,8.43
2019-01-28T01:02:36.512Z,8.23
2019-01-28T01:07:41.026Z,8.40
2019-01-28T01:12:45.364Z,9.40
2019-01-28T01:17:52.693Z,8.00
2019-01-28T01:22:57.113Z,8.30
2019-01-28T01:28:01.471Z,9.27
2019-01-28T01:33:05.900Z,7.43
2019-01-28T01:38:10.252Z,8.83
2019-01-28T01:43:14.617Z,8.30
2019-01-28T01:48:19.020Z,9.10
2019-01-28T01:53:23.371Z,9.47
2019-01-28T01:58:27.741Z,9.30
2019-01-28T02:03:32.073Z,9.30
2019-01-28T02:08:36.420Z,9.27
2019-01-28T02:13:40.781Z,8.37
2019-01-28T02:18:45.130Z,9.93
2019-01-28T02:23:49.459Z,9.47
2019-01-28T02:28:53.964Z,8.33
2019-01-28T02:33:58.341Z,7.80
2019-01-28T02:39:02.739Z,5.90
2019-01-28T02:44:08.724Z,2.73
2019-01-28T02:49:13.087Z,1.60
2019-01-28T02:54:17.480Z,1.50
2019-01-28T02:59:21.833Z,1.20
2019-01-28T03:04:27.149Z,1.20
2019-01-28T03:09:31.572Z,1.33
2019-01-28T03:14:35.871Z,1.20
2019-01-28T03:19:40.233Z,1.60
2019-01-28T03:24:44.649Z,1.60
2019-01-28T03:29:49.109Z,3.40
2019-01-28T03:34:53.511Z,1.50
2019-01-28T03:39:57.856Z,2.17
2019-01-28T03:45:02.268Z,2.83
2019-01-28T03:50:09.839Z,3.13
2019-01-28T03:55:14.240Z,2.77
2019-01-28T04:00:20.760Z,1.83
2019-01-28T04:05:25.169Z,2.60
2019-01-28T04:10:29.588Z,2.07
2019-01-28T04:15:34.100Z,2.43
2019-01-28T04:20:38.537Z,2.53
2019-01-28T04:25:42.921Z,2.50
2019-01-28T04:30:47.702Z,3.43
2019-01-28T04:35:52.139Z,3.47
2019-01-28T04:40:56.512Z,2.80
2019-01-28T04:46:00.882Z,3.17
2019-01-28T04:51:05.291Z,3.70
2019-01-28T04:56:09.619Z,3.93
2019-01-28T05:01:13.952Z,5.43
2019-01-28T05:06:18.332Z,3.40
2019-01-28T05:11:22.687Z,3.50
2019-01-28T05:16:27.068Z,3.57
2019-01-28T05:21:31.466Z,3.50
2019-01-28T05:26:35.820Z,3.77
2019-01-28T05:31:40.224Z,4.33
2019-01-28T05:36:44.690Z,4.43
2019-01-28T05:41:49.028Z,4.10
2019-01-28T05:46:53.379Z,4.33
2019-01-28T05:51:58.374Z,5.47
2019-01-28T05:57:02.738Z,6.23
2019-01-28T06:02:07.125Z,4.47
2019-01-28T06:07:11.500Z,5.43
2019-01-28T06:12:15.868Z,3.80
2019-01-28T06:17:20.230Z,3.20
2019-01-28T06:22:24.580Z,5.37
2019-01-28T06:27:28.941Z,3.17
2019-01-28T06:32:33.903Z,2.87
2019-01-28T06:37:38.244Z,2.70
2019-01-28T06:42:42.580Z,2.93
2019-01-28T06:47:47.305Z,4.00
2019-01-28T06:52:51.809Z,3.10
2019-01-28T06:57:56.147Z,3.20
2019-01-28T07:03:00.743Z,3.27
2019-01-28T07:08:05.217Z,3.47
2019-01-28T07:13:09.552Z,5.17
2019-01-28T07:18:13.968Z,3.90
2019-01-28T07:23:18.283Z,3.67
2019-01-28T07:28:22.740Z,3.37
2019-01-28T07:33:27.065Z,2.80
2019-01-28T07:38:31.449Z,5.33
2019-01-28T07:43:35.801Z,2.70
2019-01-28T07:48:40.138Z,3.47
2019-01-28T07:53:44.520Z,4.10
2019-01-28T07:58:48.858Z,2.63
2019-01-28T08:03:53.205Z,2.50
2019-01-28T08:08:57.570Z,2.57
2019-01-28T08:14:01.941Z,3.03
2019-01-28T08:19:06.302Z,3.67
2019-01-28T08:24:10.711Z,2.87
2019-01-28T08:29:15.080Z,3.30
2019-01-28T08:34:19.504Z,4.23
2019-01-28T08:39:23.920Z,3.77
2019-01-28T08:44:28.239Z,2.97
2019-01-28T08:49:32.584Z,2.90
2019-01-28T08:54:36.970Z,2.70
2019-01-28T08:59:41.283Z,2.50
2019-01-28T09:04:45.792Z,3.57
2019-01-28T09:09:50.189Z,2.93
2019-01-28T09:14:54.552Z,2.60
2019-01-28T09:19:59.136Z,2.53
2019-01-28T09:25:04.225Z,4.10
2019-01-28T09:30:19.861Z,2.90
2019-01-28T09:35:24.446Z,2.10
2019-01-28T09:40:31.849Z,1.60
2019-01-28T09:45:41.502Z,1.87
2019-01-28T09:50:46.154Z,1.87
2019-01-28T09:55:50.498Z,2.33
2019-01-28T10:00:54.971Z,3.27
2019-01-28T10:05:59.344Z,3.40
2019-01-28T10:11:03.709Z,1.70
2019-01-28T10:16:08.090Z,1.80
2019-01-28T10:21:12.528Z,2.40
2019-01-28T10:26:16.866Z,1.97
2019-01-28T10:31:21.567Z,3.80
2019-01-28T10:36:27.167Z,2.10
2019-01-28T10:41:31.516Z,2.50
2019-01-28T10:46:35.889Z,2.30
2019-01-28T10:51:40.249Z,2.40
2019-01-28T10:56:44.618Z,1.93
2019-01-28T11:01:48.999Z,1.40
2019-01-28T11:06:53.346Z,2.37
2019-01-28T11:11:57.826Z,4.60
2019-01-28T11:17:02.339Z,1.67
2019-01-28T11:22:08.421Z,2.07
2019-01-28T11:27:12.800Z,2.10
2019-01-28T11:32:17.217Z,1.73
2019-01-28T11:37:21.766Z,2.87
2019-01-28T11:42:26.318Z,2.53
2019-01-28T11:47:30.626Z,2.30
2019-01-28T11:52:35.030Z,1.17
2019-01-28T11:57:39.365Z,4.43
2019-01-28T12:02:43.740Z,1.23
2019-01-28T12:07:48.111Z,2.80
2019-01-28T12:12:52.537Z,2.50
2019-01-28T12:17:57.041Z,1.30
2019-01-28T12:23:01.410Z,2.23
2019-01-28T12:28:06.128Z,2.13
2019-01-28T12:33:10.748Z,1.02
2019-01-28T12:38:16.170Z,1.70
2019-01-28T12:43:20.547Z,1.22
2019-01-28T12:48:24.887Z,1.10
2019-01-28T12:53:29.463Z,2.27
2019-01-28T12:58:33.882Z,1.87
2019-01-28T13:03:38.258Z,2.73
2019-01-28T13:08:42.557Z,1.03
2019-01-28T13:13:46.900Z,2.77
2019-01-28T13:18:52.439Z,1.43
2019-01-28T13:23:56.773Z,1.70
2019-01-28T13:29:01.169Z,1.83
2019-01-28T13:34:05.553Z,1.10
2019-01-28T13:39:09.933Z,1.03
2019-01-28T13:44:14.275Z,2.27
2019-01-28T13:49:18.961Z,1.20
2019-01-28T13:54:23.299Z,1.03
2019-01-28T13:59:27.691Z,2.13
2019-01-28T14:04:32.059Z,0.87
2019-01-28T14:09:36.438Z,1.60
2019-01-28T14:14:40.890Z,1.83
2019-01-28T14:19:46.470Z,1.53
2019-01-28T14:24:51.127Z,3.90
2019-01-28T14:29:55.482Z,1.20
2019-01-28T14:34:59.838Z,1.47
2019-01-28T14:40:06.773Z,0.97
2019-01-28T14:45:12.543Z,1.13
2019-01-28T14:50:22.863Z,0.83
2019-01-28T14:55:27.439Z,2.13
2019-01-28T15:00:37.312Z,1.67
2019-01-28T15:05:41.854Z,1.47
2019-01-28T15:10:46.284Z,0.80
2019-01-28T15:15:50.637Z,1.30
2019-01-28T15:20:54.982Z,1.03
2019-01-28T15:25:59.315Z,1.37
2019-01-28T15:31:03.767Z,1.23
2019-01-28T15:36:08.151Z,1.13
2019-01-28T15:41:12.504Z,1.07
2019-01-28T15:46:16.865Z,1.80
2019-01-28T15:51:21.261Z,2.60
2019-01-28T15:56:25.687Z,1.07
2019-01-28T16:01:30.020Z,1.27
2019-01-28T16:06:34.357Z,1.33
2019-01-28T16:11:38.714Z,1.20
2019-01-28T16:16:43.160Z,1.20
2019-01-28T16:21:47.514Z,1.20
2019-01-28T16:26:51.942Z,3.07
2019-01-28T16:31:57.478Z,1.30
2019-01-28T16:37:01.863Z,2.13
2019-01-28T16:42:06.318Z,1.90
2019-01-28T16:47:11.071Z,1.40
2019-01-28T16:52:15.534Z,1.40
2019-01-28T16:57:19.874Z,1.80
2019-01-28T17:02:24.317Z,1.50
2019-01-28T17:07:28.719Z,1.73
2019-01-28T17:12:33.057Z,4.53
2019-01-28T17:17:37.389Z,3.03
2019-01-28T17:22:41.764Z,2.27
2019-01-28T17:27:46.157Z,2.30
2019-01-28T17:32:50.502Z,1.27
2019-01-28T17:37:54.886Z,2.27
2019-01-28T17:42:59.307Z,1.90
2019-01-28T17:48:03.753Z,2.17
2019-01-28T17:53:08.094Z,2.93
2019-01-28T17:58:12.527Z,1.97
2019-01-28T18:03:17.616Z,1.95
2019-01-28T18:08:21.973Z,1.57
2019-01-28T18:13:26.442Z,1.17
2019-01-28T18:18:31.099Z,1.30
2019-01-28T18:23:37.217Z,1.40
2019-01-28T18:28:40.952Z,1.30
2019-01-28T18:33:45.504Z,2.77
2019-01-28T18:38:50.929Z,1.53
2019-01-28T18:43:57.306Z,1.43
2019-01-28T18:49:06.226Z,1.20
2019-01-28T18:54:12.528Z,1.27
2019-01-28T18:59:17.930Z,1.63
2019-01-28T19:04:27.149Z,1.50
2019-01-28T19:09:33.824Z,1.40
2019-01-28T19:14:56.263Z,2.10
2019-01-28T19:20:09.109Z,1.60
2019-01-28T19:25:18.018Z,2.17
2019-01-28T19:30:28.459Z,2.00
2019-01-28T19:35:33.189Z,2.57
2019-01-28T19:40:37.828Z,2.40
2019-01-28T19:45:42.610Z,2.30
2019-01-28T19:50:48.254Z,2.53
2019-01-28T19:55:54.064Z,1.90
2019-01-28T20:00:58.733Z,1.90
2019-01-28T20:06:06.582Z,2.40
2019-01-28T20:11:11.145Z,2.37
2019-01-28T20:16:16.483Z,2.60
2019-01-28T20:21:23.909Z,2.73
2019-01-28T20:26:26.956Z,3.00
2019-01-28T20:31:31.366Z,2.60
2019-01-28T20:36:35.737Z,2.87
2019-01-28T20:41:40.173Z,2.90
2019-01-28T20:46:44.748Z,2.77
2019-01-28T20:51:50.744Z,2.83
2019-01-28T20:56:56.185Z,3.03
2019-01-28T21:02:03.775Z,3.30
2019-01-28T21:07:08.583Z,3.20
2019-01-28T21:12:14.302Z,3.63
2019-01-28T21:17:18.700Z,3.73
2019-01-28T21:22:23.089Z,4.00
2019-01-28T21:27:28.555Z,4.10
2019-01-28T21:32:33.212Z,4.00
2019-01-28T21:37:39.290Z,4.00
2019-01-28T21:42:43.851Z,4.00
2019-01-28T21:47:54.243Z,5.10
2019-01-28T21:52:59.741Z,4.17
2019-01-28T21:58:04.686Z,4.40
2019-01-28T22:03:09.070Z,4.97
2019-01-28T22:08:13.524Z,5.50
2019-01-28T22:13:17.872Z,5.93
2019-01-28T22:18:22.250Z,6.10
2019-01-28T22:23:26.597Z,6.20
2019-01-28T22:28:30.988Z,6.23
2019-01-28T22:33:37.801Z,6.62
2019-01-28T22:38:42.721Z,7.00
2019-01-28T22:43:47.740Z,6.93
2019-01-28T22:48:52.100Z,5.60
2019-01-28T22:53:56.493Z,5.13
2019-01-28T22:59:00.887Z,4.80
2019-01-28T23:04:06.164Z,4.50
2019-01-28T23:09:10.942Z,4.63
2019-01-28T23:14:15.468Z,4.60
2019-01-28T23:19:19.853Z,4.07
2019-01-28T23:24:25.103Z,3.90
2019-01-28T23:29:29.442Z,4.00
2019-01-28T23:34:33.880Z,4.23
2019-01-28T23:39:38.231Z,4.30
2019-01-28T23:44:42.704Z,3.50
2019-01-28T23:49:47.186Z,3.47
2019-01-28T23:54:51.581Z,3.43
2019-01-28T23:59:57.236Z,3.40
